createdAt,value
2018-04-30T00:04:52.996Z,79
2018-04-30T00:10:19.486Z,79
2018-04-30T00:15:45.758Z,79
2018-04-30T00:21:13.200Z,79
2018-04-30T00:26:39.621Z,79
2018-04-30T00:32:06.039Z,79
2018-04-30T00:37:32.397Z,79
2018-04-30T00:42:59.869Z,79
2018-04-30T00:48:26.141Z,79
2018-04-30T00:53:53.595Z,79
2018-04-30T00:59:19.898Z,79
2018-04-30T01:04:46.320Z,78
2018-04-30T01:10:12.687Z,78
2018-04-30T01:15:38.899Z,78
2018-04-30T01:21:05.283Z,78
2018-04-30T01:26:32.772Z,78
2018-04-30T01:31:59.016Z,78
2018-04-30T01:37:26.369Z,78
2018-04-30T01:42:52.759Z,78
2018-04-30T01:48:19.064Z,78
2018-04-30T01:53:45.454Z,78
2018-04-30T01:59:11.814Z,78
2018-04-30T02:04:39.259Z,78
2018-04-30T02:10:05.524Z,78
2018-04-30T02:15:31.859Z,78
2018-04-30T02:20:59.152Z,78
2018-04-30T02:26:26.856Z,78
2018-04-30T02:31:52.843Z,78
2018-04-30T02:37:19.461Z,78
2018-04-30T02:42:45.525Z,78
2018-04-30T02:48:12.881Z,78
2018-04-30T02:53:39.321Z,78
2018-04-30T03:10:00.696Z,78
2018-04-30T03:15:27.513Z,78
2018-04-30T03:20:53.910Z,78
2018-04-30T03:26:20.286Z,78
2018-04-30T03:31:46.500Z,78
2018-04-30T03:37:12.983Z,78
2018-04-30T03:42:39.440Z,78
2018-04-30T03:48:05.757Z,78
2018-04-30T03:53:31.953Z,78
2018-04-30T03:58:58.162Z,78
2018-04-30T04:04:25.428Z,78
2018-04-30T04:09:52.716Z,78
2018-04-30T04:15:20.192Z,78
2018-04-30T04:20:47.659Z,78
2018-04-30T04:26:13.901Z,78
2018-04-30T04:31:41.072Z,78
2018-04-30T04:37:07.554Z,78
2018-04-30T04:42:34.775Z,79
2018-04-30T04:48:02.131Z,78
2018-04-30T04:53:28.472Z,79
2018-04-30T04:58:56.193Z,79
2018-04-30T05:04:23.157Z,79
2018-04-30T05:09:50.710Z,79
2018-04-30T05:15:16.858Z,79
2018-04-30T05:20:44.153Z,79
2018-04-30T05:26:10.484Z,79
2018-04-30T05:31:36.845Z,79
2018-04-30T05:37:03.246Z,79
2018-04-30T05:42:29.686Z,79
2018-04-30T05:47:56.965Z,80
2018-04-30T05:53:23.222Z,80
2018-04-30T05:58:50.592Z,80
2018-04-30T06:04:17.793Z,80
2018-04-30T06:09:44.171Z,81
2018-04-30T06:15:10.576Z,81
2018-04-30T06:20:37.772Z,81
2018-04-30T06:26:03.896Z,81
2018-04-30T06:31:30.261Z,81
2018-04-30T06:36:57.704Z,81
2018-04-30T06:42:23.888Z,81
2018-04-30T06:47:50.346Z,82
2018-04-30T06:58:44.767Z,82
2018-04-30T07:04:12.024Z,82
2018-04-30T07:09:38.514Z,82
2018-04-30T07:15:05.699Z,82
2018-04-30T07:20:32.152Z,82
2018-04-30T07:25:59.191Z,82
2018-04-30T07:36:52.941Z,83
2018-04-30T07:42:20.605Z,83
2018-04-30T07:47:46.524Z,83
2018-04-30T07:53:13.890Z,84
2018-04-30T07:58:40.009Z,84
2018-04-30T08:04:06.415Z,84
2018-04-30T08:09:33.545Z,84
2018-04-30T08:14:59.931Z,84
2018-04-30T08:20:27.825Z,84
2018-04-30T08:25:53.391Z,84
2018-04-30T08:31:20.441Z,84
2018-04-30T08:36:46.693Z,84
2018-04-30T08:42:12.911Z,84
2018-04-30T08:47:39.175Z,84
2018-04-30T08:53:05.428Z,84
2018-04-30T09:03:59.055Z,83
2018-04-30T09:09:25.387Z,84
2018-04-30T09:14:51.886Z,84
2018-04-30T09:20:18.094Z,84
2018-04-30T09:25:44.507Z,84
2018-04-30T09:31:10.777Z,84
2018-04-30T09:36:38.140Z,84
2018-04-30T09:42:04.499Z,84
2018-04-30T09:47:31.977Z,83
2018-04-30T09:52:59.375Z,83
2018-04-30T09:58:26.867Z,84
2018-04-30T10:03:53.338Z,84
2018-04-30T10:09:19.676Z,84
2018-04-30T10:14:46.099Z,84
2018-04-30T10:20:13.533Z,84
2018-04-30T10:25:40.976Z,85
2018-04-30T10:31:08.619Z,85
2018-04-30T10:36:35.742Z,85
2018-04-30T10:42:02.190Z,85
2018-04-30T10:47:29.776Z,85
2018-04-30T10:52:56.971Z,85
2018-04-30T10:58:23.618Z,85
2018-04-30T11:03:50.806Z,85
2018-04-30T11:09:18.183Z,85
2018-04-30T11:14:44.600Z,85
2018-04-30T11:20:11.044Z,85
2018-04-30T11:25:38.444Z,85
2018-04-30T11:31:04.952Z,85
2018-04-30T11:36:30.957Z,85
2018-04-30T11:41:58.368Z,85
2018-04-30T11:47:25.954Z,85
2018-04-30T11:52:52.106Z,85
2018-04-30T11:58:19.583Z,85
2018-04-30T12:03:45.839Z,85
2018-04-30T12:09:13.133Z,85
2018-04-30T12:14:39.781Z,85
2018-04-30T12:20:06.867Z,85
2018-04-30T12:25:33.310Z,85
2018-04-30T12:30:59.748Z,85
2018-04-30T12:36:26.851Z,85
2018-04-30T12:41:54.195Z,85
2018-04-30T12:47:21.522Z,85
2018-04-30T12:52:47.786Z,85
2018-04-30T12:58:14.213Z,85
2018-04-30T13:03:41.436Z,85
2018-04-30T13:09:08.764Z,85
2018-04-30T13:14:35.089Z,85
2018-04-30T13:20:02.489Z,85
2018-04-30T13:25:28.711Z,85
2018-04-30T13:30:55.086Z,85
2018-04-30T13:36:21.702Z,85
2018-04-30T13:41:48.719Z,85
2018-04-30T13:47:16.048Z,85
2018-04-30T13:52:42.369Z,86
2018-04-30T13:58:09.795Z,86
2018-04-30T14:03:35.988Z,86
2018-04-30T14:09:03.460Z,86
2018-04-30T14:14:30.702Z,86
2018-04-30T14:19:57.093Z,86
2018-04-30T14:25:23.563Z,86
2018-04-30T14:30:50.800Z,86
2018-04-30T14:36:18.205Z,86
2018-04-30T14:41:45.635Z,87
2018-04-30T14:47:12.321Z,87
2018-04-30T14:52:38.433Z,87
2018-04-30T14:58:05.718Z,87
2018-04-30T15:03:32.194Z,87
2018-04-30T15:08:59.488Z,87
2018-04-30T15:14:26.822Z,87
2018-04-30T15:19:53.551Z,88
2018-04-30T15:25:19.592Z,88
2018-04-30T15:30:46.993Z,88
2018-04-30T15:41:40.868Z,88
2018-04-30T15:47:08.238Z,88
2018-04-30T15:52:34.510Z,88
2018-04-30T15:58:02.344Z,88
2018-04-30T16:03:29.394Z,88
2018-04-30T16:08:57.611Z,88
2018-04-30T16:14:24.221Z,88
2018-04-30T16:19:50.648Z,88
2018-04-30T16:25:16.854Z,88
2018-04-30T16:30:43.384Z,88
2018-04-30T16:36:09.649Z,88
2018-04-30T16:41:36.136Z,88
2018-04-30T16:47:03.539Z,88
2018-04-30T16:52:30.992Z,88
2018-04-30T16:57:57.486Z,88
2018-04-30T17:03:23.924Z,88
2018-04-30T17:08:50.600Z,89
2018-04-30T17:19:43.387Z,89
2018-04-30T17:25:10.603Z,89
2018-04-30T17:30:38.283Z,89
2018-04-30T17:36:05.405Z,89
2018-04-30T17:41:31.962Z,89
2018-04-30T17:46:59.266Z,89
2018-04-30T17:52:26.659Z,89
2018-04-30T17:57:52.995Z,89
2018-04-30T18:03:20.532Z,89
2018-04-30T18:08:46.789Z,89
2018-04-30T18:14:13.073Z,89
2018-04-30T18:19:40.547Z,89
2018-04-30T18:25:06.665Z,89
2018-04-30T18:30:34.184Z,89
2018-04-30T18:36:00.342Z,89
2018-04-30T18:41:28.035Z,89
2018-04-30T18:46:55.009Z,90
2018-04-30T18:52:22.454Z,90
2018-04-30T18:57:48.568Z,90
2018-04-30T19:03:14.957Z,90
2018-04-30T19:08:41.198Z,90
2018-04-30T19:14:07.537Z,90
2018-04-30T19:19:34.828Z,89
2018-04-30T19:25:01.107Z,90
2018-04-30T19:30:27.414Z,90
2018-04-30T19:35:53.753Z,90
2018-04-30T19:41:20.109Z,90
2018-04-30T19:46:47.288Z,90
2018-04-30T19:52:14.579Z,90
2018-04-30T19:57:40.817Z,90
2018-04-30T20:03:07.229Z,89
2018-04-30T20:08:34.362Z,89
2018-04-30T20:14:01.793Z,89
2018-04-30T20:19:27.851Z,89
2018-04-30T20:24:54.202Z,89
2018-04-30T20:30:21.499Z,89
2018-04-30T20:35:48.607Z,89
2018-04-30T20:41:15.836Z,89
2018-04-30T20:46:42.175Z,89
2018-04-30T20:52:09.485Z,89
2018-04-30T20:57:35.421Z,89
2018-04-30T21:03:02.647Z,89
2018-04-30T21:08:28.841Z,89
2018-04-30T21:13:54.997Z,89
2018-04-30T21:19:21.169Z,89
2018-04-30T21:24:48.392Z,89
2018-04-30T21:30:14.723Z,89
2018-04-30T21:35:41.660Z,89
2018-04-30T21:41:07.958Z,89
2018-04-30T21:46:34.060Z,89
2018-04-30T21:52:01.391Z,89
2018-04-30T21:57:28.510Z,89
2018-04-30T22:02:54.440Z,89
2018-04-30T22:08:21.620Z,89
2018-04-30T22:13:47.697Z,89
2018-04-30T22:19:14.715Z,89
2018-04-30T22:24:41.865Z,89
2018-04-30T22:30:07.934Z,89
2018-04-30T22:35:34.043Z,89
2018-04-30T22:41:00.174Z,89
2018-04-30T22:46:27.122Z,88
2018-04-30T22:51:53.353Z,88
2018-04-30T22:57:19.406Z,88
2018-04-30T23:02:46.445Z,88
2018-04-30T23:08:12.479Z,88
2018-04-30T23:13:39.545Z,88
2018-04-30T23:19:05.551Z,88
2018-04-30T23:24:31.632Z,88
2018-04-30T23:29:58.634Z,88
2018-04-30T23:35:24.685Z,88
2018-04-30T23:40:50.890Z,88
2018-04-30T23:46:17.835Z,88
2018-04-30T23:51:44.927Z,88
2018-04-30T23:57:11.799Z,87
